KARA

Acadiana Regional Airport

New Iberia, Louisiana, USA
METAR KARA 162153Z 05006KT 10SM CLR 16/08 A3025 RMK AO2 SLP244 T01610078
Observed Flight Rules
Dec-16 @ 21:53 UTC (10 minutes ago) Visual Flight Rules
Wind Visibility Clouds
50° at 6 knots 10 miles
  • Clear skies
Temperatures Readings
Current 16°C / 61°F
Dewpoint 8°C / 46°F
Humidity 59%
Altimeter 30.25" Hg
Pressure 1024.4 hPa
Elevation 18
METAR KARA 162153Z 05006KT 10SM CLR 16/08 A3025 RMK AO2 SLP244 T01610078
Observed Flight Rules
Dec-16 @ 21:53 UTC
(10 minutes ago)
VFR
Wind Visibility
50° at 6 knots 10 miles
Clouds
  • Clear skies
Temperature Dewpoint
16°C / 61°F 8°C / 46°F
Humidity Altimeter Pressure
59% 30.25" Hg 1024.4 hPa